Terminal Aerodrome Forecast
Issued by NWS

Home | Current Version | Previous Version | Text Only | Print | Product List | Glossary On
Versions: 1 2 3 4 5 6 7 8 9 10 11 12 13 14 15
134
FTUS42 KTAE 252320
TAFABY
TAF
KABY 252320Z 2600/2624 30005KT P6SM SCT050 BKN250
     FM261500 22008G16KT P6SM BKN050
     FM261800 25014G20KT P6SM VCTS BKN030CB
     FM262100 27013G19KT P6SM SCT040=

USA.gov is the U.S. government's official web portal to all federal, state and local government web resources and services.